createdAt,value
2022-12-14T00:01:49.567Z,100613.84
2022-12-14T00:04:17.321Z,100611.22
2022-12-14T00:06:44.702Z,100613.00
2022-12-14T00:09:12.031Z,100608.56
2022-12-14T00:11:39.071Z,100617.44
2022-12-14T00:14:06.353Z,100607.81
2022-12-14T00:16:35.376Z,100603.38
2022-12-14T00:19:05.485Z,100591.03
2022-12-14T00:21:33.405Z,100583.97
2022-12-14T00:24:00.679Z,100586.59
2022-12-14T00:26:32.480Z,100588.28
2022-12-14T00:29:01.772Z,100584.78
2022-12-14T00:31:31.433Z,100590.94
2022-12-14T00:33:59.051Z,100584.81
2022-12-14T00:36:28.138Z,100577.78
2022-12-14T00:38:55.319Z,100565.47
2022-12-14T00:41:22.600Z,100565.44
2022-12-14T00:43:50.031Z,100561.06
2022-12-14T00:46:17.994Z,100554.91
2022-12-14T00:48:45.525Z,100558.41
2022-12-14T00:51:14.977Z,100554.03
2022-12-14T00:53:44.320Z,100547.81
2022-12-14T00:56:11.639Z,100556.66
2022-12-14T00:58:38.726Z,100561.06
2022-12-14T01:01:12.836Z,100569.88
2022-12-14T01:03:40.436Z,100569.88
2022-12-14T01:06:23.017Z,100576.88
2022-12-14T01:08:50.122Z,100577.78
2022-12-14T01:11:17.318Z,100578.66
2022-12-14T01:13:44.534Z,100578.59
2022-12-14T01:16:16.666Z,100579.50
2022-12-14T01:18:44.133Z,100568.94
2022-12-14T01:21:18.012Z,100556.53
2022-12-14T01:23:46.825Z,100556.53
2022-12-14T01:26:16.770Z,100555.66
2022-12-14T01:28:45.859Z,100554.78
2022-12-14T01:31:17.176Z,100561.81
2022-12-14T01:33:45.307Z,100565.34
2022-12-14T01:36:21.987Z,100564.41
2022-12-14T01:39:00.788Z,100563.56
2022-12-14T01:41:41.140Z,100558.28
2022-12-14T01:44:07.989Z,100550.38
2022-12-14T01:46:49.085Z,100540.69
2022-12-14T01:49:48.793Z,100533.69
2022-12-14T01:52:31.258Z,100524.03
2022-12-14T01:55:03.157Z,100528.47
2022-12-14T01:58:03.603Z,100522.25
2022-12-14T02:00:31.274Z,100510.88
2022-12-14T02:03:14.514Z,100510.84
2022-12-14T02:05:48.101Z,100510.00
2022-12-14T02:08:18.616Z,100506.56
2022-12-14T02:10:47.147Z,100510.97
2022-12-14T02:13:33.312Z,100509.22
2022-12-14T02:16:00.803Z,100514.50
2022-12-14T02:18:31.163Z,100503.00
2022-12-14T02:21:21.641Z,100503.94
2022-12-14T02:24:22.715Z,100503.00
2022-12-14T02:27:25.562Z,100504.84
2022-12-14T02:30:06.666Z,100504.91
2022-12-14T02:33:14.059Z,100495.19
2022-12-14T02:35:53.655Z,100488.19
2022-12-14T02:39:06.563Z,100487.31
2022-12-14T02:41:46.064Z,100488.19
2022-12-14T02:44:51.251Z,100478.59
2022-12-14T02:47:28.753Z,100471.59
2022-12-14T02:50:11.194Z,100475.03
2022-12-14T02:52:53.290Z,100472.34
2022-12-14T02:55:27.261Z,100467.94
2022-12-14T02:58:02.142Z,100459.16
2022-12-14T03:00:33.873Z,100458.25
2022-12-14T03:03:02.367Z,100457.47
2022-12-14T03:05:30.442Z,100447.75
2022-12-14T03:08:03.881Z,100444.19
2022-12-14T03:10:48.509Z,100449.44
2022-12-14T03:13:45.631Z,100446.78
2022-12-14T03:16:43.478Z,100441.56
2022-12-14T03:19:35.671Z,100438.00
2022-12-14T03:22:11.895Z,100430.94
2022-12-14T03:24:50.176Z,100426.53
2022-12-14T03:27:31.055Z,100417.69
2022-12-14T03:30:04.653Z,100415.97
2022-12-14T03:32:36.006Z,100414.25
2022-12-14T03:35:10.983Z,100408.97
2022-12-14T03:37:42.356Z,100410.72
2022-12-14T03:40:13.720Z,100405.50
2022-12-14T03:43:03.604Z,100403.72
2022-12-14T03:46:11.686Z,100401.16
2022-12-14T03:48:50.077Z,100396.88
2022-12-14T03:51:23.321Z,100398.63
2022-12-14T03:54:24.359Z,100394.13
2022-12-14T03:57:02.943Z,100392.41
2022-12-14T03:59:53.815Z,100380.06
2022-12-14T04:02:40.598Z,100380.13
2022-12-14T04:06:08.279Z,100380.88
2022-12-14T04:08:49.109Z,100375.63
2022-12-14T04:11:37.163Z,100376.53
2022-12-14T04:14:36.115Z,100369.47
2022-12-14T04:17:31.316Z,100375.59
2022-12-14T04:20:10.171Z,100377.38
2022-12-14T04:22:45.629Z,100376.53
2022-12-14T04:25:42.464Z,100378.25
2022-12-14T04:28:35.133Z,100379.09
2022-12-14T04:31:08.545Z,100376.56
2022-12-14T04:33:49.637Z,100364.38
2022-12-14T04:36:25.762Z,100359.22
2022-12-14T04:39:05.913Z,100350.44
2022-12-14T04:41:38.781Z,100353.94
2022-12-14T04:44:14.226Z,100357.44
2022-12-14T04:46:42.652Z,100354.72
2022-12-14T04:49:41.812Z,100346.81
2022-12-14T04:52:19.374Z,100342.44
2022-12-14T04:54:56.412Z,100338.94
2022-12-14T04:57:48.558Z,100337.28
2022-12-14T05:00:16.839Z,100337.28
2022-12-14T05:03:14.861Z,100342.56
2022-12-14T05:06:04.289Z,100334.63
2022-12-14T05:08:54.033Z,100322.25
2022-12-14T05:12:00.171Z,100317.91
2022-12-14T05:14:39.956Z,100318.00
2022-12-14T05:17:09.327Z,100319.72
2022-12-14T05:19:38.118Z,100330.22
2022-12-14T05:22:08.087Z,100339.03
2022-12-14T05:24:35.644Z,100329.34
2022-12-14T05:27:02.750Z,100332.84
2022-12-14T05:29:29.758Z,100328.50
2022-12-14T05:31:57.417Z,100332.84
2022-12-14T05:34:25.096Z,100332.00
2022-12-14T05:36:52.565Z,100331.09
2022-12-14T05:39:19.791Z,100326.72
2022-12-14T05:41:46.880Z,100332.00
2022-12-14T05:44:14.020Z,100324.88
2022-12-14T05:46:41.252Z,100317.00
2022-12-14T05:49:08.459Z,100315.28
2022-12-14T05:51:35.688Z,100301.16
2022-12-14T05:54:02.898Z,100308.22
2022-12-14T05:56:29.956Z,100315.28
2022-12-14T05:58:57.720Z,100316.16
2022-12-14T06:01:24.999Z,100311.84
2022-12-14T06:03:53.402Z,100310.09
2022-12-14T06:06:21.346Z,100312.72
2022-12-14T06:08:48.500Z,100306.53
2022-12-14T06:11:19.016Z,100310.88
2022-12-14T06:13:47.051Z,100303.88
2022-12-14T06:16:15.219Z,100306.56
2022-12-14T06:18:57.336Z,100315.38
2022-12-14T06:21:30.846Z,100303.88
2022-12-14T06:23:58.862Z,100302.09
2022-12-14T06:26:28.288Z,100305.59
2022-12-14T06:28:56.336Z,100305.59
2022-12-14T06:31:32.091Z,100305.59
2022-12-14T06:34:02.226Z,100298.53
2022-12-14T06:36:38.035Z,100313.50
2022-12-14T06:39:15.735Z,100319.72
2022-12-14T06:41:43.411Z,100317.13
2022-12-14T06:44:14.561Z,100309.16
2022-12-14T06:46:42.691Z,100294.13
2022-12-14T06:49:14.648Z,100292.47
2022-12-14T06:51:42.571Z,100296.91
2022-12-14T06:54:13.446Z,100308.41
2022-12-14T06:56:41.435Z,100316.38
2022-12-14T06:59:09.411Z,100317.22
2022-12-14T07:01:39.397Z,100309.47
2022-12-14T07:04:09.193Z,100306.03
2022-12-14T07:06:40.292Z,100301.75
2022-12-14T07:09:12.951Z,100307.03
2022-12-14T07:11:40.647Z,100292.81
2022-12-14T07:14:07.736Z,100294.69
2022-12-14T07:16:37.138Z,100295.59
2022-12-14T07:19:04.950Z,100302.69
2022-12-14T07:21:33.489Z,100301.03
2022-12-14T07:24:01.535Z,100296.50
2022-12-14T07:26:29.292Z,100300.06
2022-12-14T07:29:00.697Z,100304.53
2022-12-14T07:31:29.346Z,100311.56
2022-12-14T07:33:59.601Z,100323.00
2022-12-14T07:36:29.140Z,100317.63
2022-12-14T07:38:57.031Z,100323.75
2022-12-14T07:41:31.211Z,100329.91
2022-12-14T07:44:01.206Z,100316.72
2022-12-14T07:46:30.603Z,100330.72
2022-12-14T07:48:59.461Z,100345.69
2022-12-14T07:51:36.305Z,100346.50
2022-12-14T07:54:05.646Z,100337.56
2022-12-14T07:56:40.077Z,100326.13
2022-12-14T07:59:09.834Z,100322.66
2022-12-14T08:01:38.087Z,100331.47
2022-12-14T08:04:07.750Z,100342.84
2022-12-14T08:06:36.232Z,100341.91
2022-12-14T08:09:04.551Z,100345.38
2022-12-14T08:11:31.493Z,100353.22
2022-12-14T08:14:21.574Z,100361.13
2022-12-14T08:16:49.961Z,100362.81
2022-12-14T08:19:19.160Z,100350.44
2022-12-14T08:21:46.295Z,100350.53
2022-12-14T08:24:15.129Z,100349.69
2022-12-14T08:26:42.128Z,100338.94
2022-12-14T08:29:15.491Z,100341.66
2022-12-14T08:31:42.690Z,100343.47
2022-12-14T08:34:09.840Z,100340.84
2022-12-14T08:36:37.029Z,100337.25
2022-12-14T08:39:10.369Z,100349.41
2022-12-14T08:41:37.876Z,100359.09
2022-12-14T08:44:05.704Z,100365.28
2022-12-14T08:46:35.327Z,100367.94
2022-12-14T08:49:02.452Z,100384.56
2022-12-14T08:51:30.126Z,100389.72
2022-12-14T08:53:58.136Z,100394.00
2022-12-14T08:56:27.938Z,100392.22
2022-12-14T08:58:57.389Z,100386.84
2022-12-14T09:01:33.002Z,100386.72
2022-12-14T09:04:07.858Z,100395.69
2022-12-14T09:06:39.216Z,100395.78
2022-12-14T09:09:15.231Z,100392.09
2022-12-14T09:11:44.034Z,100394.56
2022-12-14T09:14:11.454Z,100391.75
2022-12-14T09:16:39.385Z,100389.91
2022-12-14T09:19:06.500Z,100392.34
2022-12-14T09:21:33.977Z,100381.63
2022-12-14T09:24:01.507Z,100381.66
2022-12-14T09:26:28.533Z,100377.13
2022-12-14T09:28:56.834Z,100391.88
2022-12-14T09:31:27.039Z,100388.44
2022-12-14T09:33:55.202Z,100401.50
2022-12-14T09:36:28.369Z,100391.19
2022-12-14T09:38:57.762Z,100397.34
2022-12-14T09:41:34.311Z,100397.09
2022-12-14T09:44:54.509Z,100406.72
2022-12-14T09:47:32.825Z,100393.56
2022-12-14T09:50:07.502Z,100387.19
2022-12-14T09:52:40.748Z,100382.69
2022-12-14T09:55:35.095Z,100387.84
2022-12-14T09:58:17.986Z,100385.00
2022-12-14T10:01:02.394Z,100378.69
2022-12-14T10:04:05.903Z,100372.94
2022-12-14T10:07:05.035Z,100373.03
2022-12-14T10:10:16.959Z,100364.13
2022-12-14T10:12:59.138Z,100359.41
2022-12-14T10:15:42.729Z,100347.81
2022-12-14T10:18:57.447Z,100350.25
2022-12-14T10:21:15.596Z,100349.16
2022-12-14T10:23:57.692Z,100338.56
2022-12-14T10:26:38.438Z,100338.47
2022-12-14T10:29:15.708Z,100340.84
2022-12-14T10:32:02.436Z,100333.66
2022-12-14T10:34:32.485Z,100331.75
2022-12-14T10:37:14.404Z,100331.53
2022-12-14T10:39:44.356Z,100317.25
2022-12-14T10:42:34.773Z,100314.34
2022-12-14T10:45:41.287Z,100315.63
2022-12-14T10:48:43.210Z,100313.72
2022-12-14T10:51:22.608Z,100312.66
2022-12-14T10:54:02.590Z,100299.97
2022-12-14T10:56:34.941Z,100299.16
2022-12-14T10:59:42.101Z,100298.22
2022-12-14T11:02:21.485Z,100287.38
2022-12-14T11:05:00.081Z,100281.31
2022-12-14T11:07:39.795Z,100275.72
2022-12-14T11:10:25.312Z,100273.03
2022-12-14T11:13:02.603Z,100273.56
2022-12-14T11:15:50.966Z,100251.53
2022-12-14T11:18:18.033Z,100250.31
2022-12-14T11:21:05.148Z,100251.13
2022-12-14T11:23:46.000Z,100257.84
2022-12-14T11:26:23.794Z,100259.56
2022-12-14T11:28:55.081Z,100251.38
2022-12-14T11:31:46.257Z,100263.59
2022-12-14T11:34:42.669Z,100258.22
2022-12-14T11:37:38.970Z,100251.84
2022-12-14T11:40:07.871Z,100253.50
2022-12-14T11:42:37.303Z,100251.78
2022-12-14T11:45:25.922Z,100253.56
2022-12-14T11:48:14.635Z,100250.06
2022-12-14T11:50:43.328Z,100246.63
2022-12-14T11:53:14.616Z,100248.19
2022-12-14T11:55:50.820Z,100242.75
2022-12-14T11:58:25.900Z,100251.38
2022-12-14T12:01:00.408Z,100250.53
2022-12-14T12:03:44.354Z,100249.63
2022-12-14T12:06:15.275Z,100247.91
2022-12-14T12:08:44.760Z,100249.63
2022-12-14T12:11:19.751Z,100255.72
2022-12-14T12:13:52.753Z,100256.59
2022-12-14T12:16:26.097Z,100250.53
2022-12-14T12:19:00.408Z,100246.97
2022-12-14T12:21:35.303Z,100251.28
2022-12-14T12:24:31.480Z,100248.50
2022-12-14T12:27:02.642Z,100242.44
2022-12-14T12:29:53.225Z,100225.50
2022-12-14T12:32:49.884Z,100217.50
2022-12-14T12:35:25.245Z,100229.75
2022-12-14T12:38:02.129Z,100210.19
2022-12-14T12:41:01.427Z,100205.78
2022-12-14T12:43:50.197Z,100207.50
2022-12-14T12:46:30.388Z,100205.69
2022-12-14T12:49:07.384Z,100194.09
2022-12-14T12:51:54.247Z,100193.09
2022-12-14T12:54:56.281Z,100199.13
2022-12-14T12:57:25.964Z,100198.25
2022-12-14T12:59:56.677Z,100193.81
2022-12-14T13:02:35.917Z,100185.72
2022-12-14T13:05:45.134Z,100180.41
2022-12-14T13:08:22.254Z,100189.38
2022-12-14T13:13:43.546Z,100192.31
2022-12-14T13:16:27.778Z,100201.91
2022-12-14T13:21:51.963Z,100201.19
2022-12-14T13:24:21.753Z,100194.00
2022-12-14T13:27:17.229Z,100188.66
2022-12-14T13:30:23.482Z,100184.22
2022-12-14T13:33:18.251Z,100180.56
2022-12-14T13:36:18.825Z,100171.66
2022-12-14T13:39:00.690Z,100170.59
2022-12-14T13:41:39.678Z,100167.16
2022-12-14T13:44:37.245Z,100166.22
2022-12-14T13:47:46.092Z,100159.13
2022-12-14T13:50:43.322Z,100164.44
2022-12-14T13:53:57.092Z,100179.38
2022-12-14T13:56:33.457Z,100180.34
2022-12-14T13:59:05.445Z,100177.63
2022-12-14T14:01:48.355Z,100168.03
2022-12-14T14:04:25.443Z,100164.53
2022-12-14T14:06:56.126Z,100157.56
2022-12-14T14:09:26.442Z,100159.38
2022-12-14T14:12:17.780Z,100164.66
2022-12-14T14:14:52.678Z,100161.22
2022-12-14T14:17:41.654Z,100162.91
2022-12-14T14:20:39.524Z,100158.50
2022-12-14T14:23:15.870Z,100148.81
2022-12-14T14:25:51.814Z,100154.13
2022-12-14T14:28:23.253Z,100156.84
2022-12-14T14:30:54.545Z,100167.47
2022-12-14T14:33:55.459Z,100179.72
2022-12-14T14:36:35.942Z,100177.97
2022-12-14T14:39:24.524Z,100181.56
2022-12-14T14:41:55.076Z,100176.31
2022-12-14T14:44:27.620Z,100173.66
2022-12-14T14:46:54.963Z,100174.69
2022-12-14T14:49:38.814Z,100171.09
2022-12-14T14:52:39.486Z,100171.16
2022-12-14T14:55:52.121Z,100172.97
2022-12-14T14:58:32.989Z,100160.66
2022-12-14T15:01:09.648Z,100158.84
2022-12-14T15:03:45.589Z,100150.13
2022-12-14T15:06:24.917Z,100135.94
2022-12-14T15:09:11.111Z,100139.53
2022-12-14T15:11:48.798Z,100143.09
2022-12-14T15:14:43.315Z,100141.41
2022-12-14T15:17:30.575Z,100140.53
2022-12-14T15:20:00.680Z,100147.53
2022-12-14T15:22:35.701Z,100137.81
2022-12-14T15:25:03.286Z,100134.25
2022-12-14T15:27:36.532Z,100137.81
2022-12-14T15:30:12.664Z,100135.16
2022-12-14T15:32:49.791Z,100123.69
2022-12-14T15:35:32.536Z,100129.94
2022-12-14T15:38:29.988Z,100114.97
2022-12-14T15:41:17.280Z,100128.19
2022-12-14T15:43:59.391Z,100125.66
2022-12-14T15:46:35.804Z,100138.88
2022-12-14T15:49:23.186Z,100133.72
2022-12-14T15:51:53.623Z,100136.38
2022-12-14T15:54:24.657Z,100135.59
2022-12-14T15:56:56.396Z,100147.97
2022-12-14T15:59:33.898Z,100140.88
2022-12-14T16:02:46.372Z,100132.88
2022-12-14T16:05:21.701Z,100133.88
2022-12-14T16:07:55.130Z,100134.72
2022-12-14T16:10:33.065Z,100138.22
2022-12-14T16:13:16.097Z,100149.78
2022-12-14T16:15:43.334Z,100146.31
2022-12-14T16:18:14.704Z,100144.56
2022-12-14T16:20:45.883Z,100137.53
2022-12-14T16:23:16.221Z,100144.56
2022-12-14T16:26:15.698Z,100149.84
2022-12-14T16:28:42.665Z,100143.75
2022-12-14T16:31:24.450Z,100138.47
2022-12-14T16:34:16.590Z,100138.47
2022-12-14T16:36:56.245Z,100142.91
2022-12-14T16:39:39.029Z,100141.13
2022-12-14T16:42:26.601Z,100147.34
2022-12-14T16:44:54.949Z,100143.81
2022-12-14T16:47:48.733Z,100144.69
2022-12-14T16:50:55.677Z,100156.16
2022-12-14T16:53:22.111Z,100160.59
2022-12-14T16:56:05.001Z,100150.00
2022-12-14T16:58:32.929Z,100152.72
2022-12-14T17:01:06.027Z,100151.00
2022-12-14T17:03:34.207Z,100151.00
2022-12-14T17:06:06.825Z,100160.75
2022-12-14T17:08:34.293Z,100155.44
2022-12-14T17:11:02.280Z,100157.16
2022-12-14T17:13:29.833Z,100164.28
2022-12-14T17:16:00.584Z,100165.19
2022-12-14T17:18:38.491Z,100159.88
2022-12-14T17:21:10.215Z,100155.50
2022-12-14T17:23:40.208Z,100149.28
2022-12-14T17:26:14.669Z,100146.66
2022-12-14T17:28:41.662Z,100142.25
2022-12-14T17:31:10.689Z,100150.13
2022-12-14T17:33:39.155Z,100158.16
2022-12-14T17:36:07.087Z,100170.47
2022-12-14T17:38:34.224Z,100168.75
2022-12-14T17:41:01.190Z,100163.44
2022-12-14T17:43:28.715Z,100163.44
2022-12-14T17:45:57.181Z,100151.13
2022-12-14T17:48:24.365Z,100160.03
2022-12-14T17:50:51.381Z,100160.88
2022-12-14T17:53:30.097Z,100156.44
2022-12-14T17:55:58.714Z,100150.28
2022-12-14T17:58:25.825Z,100156.50
2022-12-14T18:01:03.352Z,100161.72
2022-12-14T18:03:36.351Z,100160.03
2022-12-14T18:06:04.638Z,100155.63
2022-12-14T18:08:31.624Z,100154.78
2022-12-14T18:11:10.166Z,100160.94
2022-12-14T18:13:38.940Z,100168.03
2022-12-14T18:16:06.792Z,100166.22
2022-12-14T18:18:33.754Z,100169.72
2022-12-14T18:21:03.741Z,100175.13
2022-12-14T18:23:32.245Z,100179.47
2022-12-14T18:26:00.319Z,100178.72
2022-12-14T18:28:27.412Z,100172.53
2022-12-14T18:31:01.819Z,100170.75
2022-12-14T18:33:29.967Z,100175.16
2022-12-14T18:35:57.734Z,100177.91
2022-12-14T18:38:26.305Z,100178.75
2022-12-14T18:40:56.292Z,100177.06
2022-12-14T18:43:28.080Z,100189.34
2022-12-14T18:45:56.393Z,100179.69
2022-12-14T18:48:24.978Z,100187.66
2022-12-14T18:50:54.468Z,100173.69
2022-12-14T18:53:23.955Z,100178.13
2022-12-14T18:55:51.619Z,100182.53
2022-12-14T18:58:26.669Z,100189.63
2022-12-14T19:00:57.657Z,100187.84
2022-12-14T19:03:25.691Z,100192.22
2022-12-14T19:06:26.746Z,100186.97
2022-12-14T19:08:50.021Z,100185.19
2022-12-14T19:11:32.459Z,100193.06
2022-12-14T19:14:01.058Z,100186.94
2022-12-14T19:16:29.171Z,100188.63
2022-12-14T19:18:56.841Z,100187.91
2022-12-14T19:21:26.170Z,100186.13
2022-12-14T19:23:53.351Z,100185.28
2022-12-14T19:26:21.140Z,100194.06
2022-12-14T19:28:48.198Z,100187.91
2022-12-14T19:31:15.202Z,100189.72
2022-12-14T19:33:42.265Z,100192.34
2022-12-14T19:36:10.029Z,100192.41
2022-12-14T19:38:37.394Z,100188.91
2022-12-14T19:41:08.750Z,100184.47
2022-12-14T19:43:36.127Z,100181.03
2022-12-14T19:46:12.679Z,100174.81
2022-12-14T19:48:40.493Z,100175.00
2022-12-14T19:51:11.079Z,100177.66
2022-12-14T19:53:39.997Z,100176.72
2022-12-14T19:56:07.674Z,100171.56
2022-12-14T19:58:36.350Z,100171.47
2022-12-14T20:01:12.820Z,100168.09
2022-12-14T20:03:40.362Z,100160.16
2022-12-14T20:06:08.591Z,100159.25
2022-12-14T20:08:36.747Z,100175.16
2022-12-14T20:11:09.881Z,100183.22
2022-12-14T20:13:37.881Z,100184.94
2022-12-14T20:16:06.056Z,100186.78
2022-12-14T20:18:33.930Z,100186.88
2022-12-14T20:21:04.098Z,100188.56
2022-12-14T20:23:33.499Z,100189.44
2022-12-14T20:26:16.720Z,100195.59
2022-12-14T20:28:46.498Z,100199.09
2022-12-14T20:31:16.535Z,100208.84
2022-12-14T20:33:44.777Z,100204.41
2022-12-14T20:36:12.719Z,100191.16
2022-12-14T20:38:39.869Z,100187.56
2022-12-14T20:41:11.043Z,100185.91
2022-12-14T20:43:41.711Z,100180.84
2022-12-14T20:46:37.674Z,100174.88
2022-12-14T20:49:17.473Z,100178.34
2022-12-14T20:51:46.734Z,100180.19
2022-12-14T20:54:17.749Z,100185.44
2022-12-14T20:56:49.570Z,100179.19
2022-12-14T20:59:17.668Z,100179.28
2022-12-14T21:01:51.741Z,100181.03
2022-12-14T21:04:22.433Z,100188.00
2022-12-14T21:06:49.350Z,100188.00
2022-12-14T21:09:16.375Z,100189.72
2022-12-14T21:12:08.727Z,100185.28
2022-12-14T21:14:42.643Z,100178.13
2022-12-14T21:17:10.191Z,100170.25
2022-12-14T21:19:37.248Z,100177.25
2022-12-14T21:22:06.532Z,100170.13
2022-12-14T21:27:26.805Z,100178.25
2022-12-14T21:29:54.493Z,100171.19
2022-12-14T21:32:23.157Z,100179.19
2022-12-14T21:34:51.240Z,100182.78
2022-12-14T21:37:18.946Z,100184.50
2022-12-14T21:39:54.544Z,100179.13
2022-12-14T21:42:25.883Z,100179.13
2022-12-14T21:44:54.452Z,100184.44
2022-12-14T21:47:26.056Z,100186.16
2022-12-14T21:49:54.236Z,100191.44
2022-12-14T21:52:25.034Z,100179.13
2022-12-14T21:54:52.031Z,100179.06
2022-12-14T21:57:42.649Z,100180.00
2022-12-14T22:00:11.241Z,100177.41
2022-12-14T22:02:42.383Z,100180.84
2022-12-14T22:05:10.823Z,100183.50
2022-12-14T22:07:37.977Z,100182.56
2022-12-14T22:10:06.091Z,100187.94
2022-12-14T22:12:33.679Z,100180.91
2022-12-14T22:15:01.510Z,100180.97
2022-12-14T22:17:28.424Z,100191.50
2022-12-14T22:19:55.587Z,100193.28
2022-12-14T22:22:23.464Z,100201.31
2022-12-14T22:24:51.437Z,100203.09
2022-12-14T22:27:19.699Z,100194.34
2022-12-14T22:29:47.050Z,100184.69
2022-12-14T22:32:14.977Z,100194.41
2022-12-14T22:34:42.699Z,100193.56
2022-12-14T22:37:10.116Z,100195.34
2022-12-14T22:39:37.105Z,100199.88
2022-12-14T22:42:04.335Z,100205.22
2022-12-14T22:44:31.426Z,100210.59
2022-12-14T22:46:58.534Z,100220.28
2022-12-14T22:49:25.477Z,100227.31
2022-12-14T22:51:52.473Z,100233.38
2022-12-14T22:54:27.961Z,100231.63
2022-12-14T22:57:02.396Z,100233.25
2022-12-14T22:59:48.565Z,100234.31
2022-12-14T23:02:15.910Z,100236.03
2022-12-14T23:04:43.068Z,100232.53
2022-12-14T23:07:10.142Z,100232.63
2022-12-14T23:09:55.795Z,100230.09
2022-12-14T23:12:41.794Z,100235.25
2022-12-14T23:15:28.260Z,100224.66
2022-12-14T23:18:20.380Z,100219.50
2022-12-14T23:21:06.249Z,100214.28
2022-12-14T23:23:51.870Z,100205.44
2022-12-14T23:26:37.554Z,100206.53
2022-12-14T23:29:23.277Z,100210.97
2022-12-14T23:32:09.302Z,100207.41
2022-12-14T23:34:54.906Z,100217.25
2022-12-14T23:37:40.718Z,100211.03
2022-12-14T23:40:27.572Z,100213.53
2022-12-14T23:43:13.366Z,100210.84
2022-12-14T23:45:58.950Z,100212.63
2022-12-14T23:48:44.496Z,100209.88
2022-12-14T23:51:29.785Z,100203.63
2022-12-14T23:54:15.258Z,100186.91
2022-12-14T23:57:00.737Z,100186.94
2022-12-14T23:59:49.519Z,100186.38
